Grant Town, West Virginia
Current Conditions -  °F | °C
As of 12:53 AM on Saturday 20 Dec 2014 (Local Time) from KMGW Reporting Station
Overcast Overcast  
Wind Chill: 30°   Ceiling: 2400
Heat Index: 30°   Visibility: 10mi
Dew Point: 18°   Wind: 0mph
Humidity: 61%   Direction: NA
Pressure: 30.24"   Gusts: NA
Location:  39.56°N, 80.18°W
Report Text: KMGW 200553Z AUTO 00000KT 10SM OVC024 M01/M08 A3024 RMK AO2 SLP255 T10111078 11011 21017 56009 TSNO
Loading
Personal Weather Stations






























Interactive Weather Map New forecast layout! Learn more

10-Day Weather Forecast

Advertisements
Track Severe Weather on mobile